METAR Data
IDs: Format: Raw Decoded Include TAF

Data at: 0735 UTC 03 Aug 2021

KOXR 030651Z 28005KT 9SM CLR 16/14 A2996 RMK AO2 SLP143 T01560139
KOXR 030551Z 28005KT 9SM CLR 16/14 A2996 RMK AO2 SLP143 T01610144 10211 20161 50001
KOXR 030451Z 29005KT 9SM CLR 16/14 A2996 RMK AO2 SLP145 T01610144
KOXR 030351Z 29007KT 10SM CLR 17/14 A2996 RMK AO2 SLP144 T01670144
KOXR 030251Z 28007KT 10SM CLR 17/14 A2996 RMK AO2 SLP143 T01720144 56004
KOXR 030151Z 29011KT 10SM CLR 19/14 A2996 RMK AO2 SLP143 T01940144
KOXR 030051Z 28012KT 10SM CLR 20/14 A2996 RMK AO2 SLP145 T02000144
KOXR 022351Z 27014KT 10SM CLR 21/14 A2997 RMK AO2 SLP147 T02060144 10233 20206 56014
KOXR 022251Z 27017KT 10SM CLR 21/14 A2997 RMK AO2 SLP148 T02110144
KOXR 022151Z 28015KT 10SM CLR 22/14 A2999 RMK AO2 SLP154 T02220144
KOXR 022051Z 29011KT 10SM CLR 22/15 A3001 RMK AO2 SLP160 T02170150 58014
KOXR 021951Z 27011KT 10SM CLR 22/14 A3003 RMK AO2 SLP168 T02220144
KOXR 021851Z 28010KT 10SM CLR 22/14 A3003 RMK AO2 SLP170 T02170139
KOXR 021751Z 28009KT 10SM CLR 21/15 A3005 RMK AO2 SLP174 T02060150 10206 20133 58003
KOXR 021651Z 27007KT 10SM CLR 20/15 A3006 RMK AO2 SLP177 T02000150
KOXR 021551Z 28006KT 10SM CLR 20/14 A3006 RMK AO2 SLP178 T02000139 $
KOXR 021451Z 00000KT 10SM CLR 18/14 A3006 RMK AO2 SLP177 T01830139 51013 $
KOXR 021351Z 00000KT 9SM CLR 14/12 A3005 RMK AO2 SLP176 T01390122 $
KOXR 021251Z 00000KT 10SM CLR 14/12 A3004 RMK AO2 SLP170 T01440122 $
KOXR 021151Z 05003KT 9SM CLR 14/13 A3002 RMK AO2 SLP165 T01390128 10167 20139 53002 $
KOXR 021051Z 00000KT 9SM CLR 15/13 A3002 RMK AO2 SLP163 T01500133 $
KOXR 020951Z 33003KT 9SM CLR 16/14 A3001 RMK AO2 SLP162 T01560139 $
KOXR 020851Z 00000KT 9SM CLR 16/14 A3001 RMK AO2 SLP163 T01560144 56004 $
KOXR 020751Z 00000KT 9SM CLR 16/14 A3001 RMK AO2 SLP163 T01610144 402220139 $
KOXR 020651Z 00000KT 10SM CLR 16/14 A3002 RMK AO2 SLP166 T01610144 $
KOXR 020551Z 31005KT 10SM CLR 17/14 A3003 RMK AO2 SLP167 T01670144 10211 20167 53005 $
KOXR 020451Z 31006KT 10SM CLR 17/14 A3002 RMK AO2 SLP166 T01720144 $
KOXR 020351Z 30008KT 10SM CLR 18/14 A3001 RMK AO2 SLP160 T01780144 $
KOXR 020251Z 29010KT 10SM CLR 18/14 A3001 RMK AO2 SLP162 T01780144 56002 $
KOXR 020151Z 29014KT 10SM CLR 19/14 A3001 RMK AO2 SLP162 T01940144 $
KOXR 020051Z 28017KT 10SM CLR 20/14 A3001 RMK AO2 SLP162 T02000144 $
KOXR 012351Z 28017KT 10SM CLR 21/14 A3002 RMK AO2 SLP164 T02110144 10222 20200 58010 $
KOXR 012251Z 27018KT 10SM CLR 22/14 A3003 RMK AO2 SLP167 T02170144 $
KOXR 012151Z 27015KT 10SM CLR 22/15 A3004 RMK AO2 PK WND 30026/2052 SLP172 T02170150 $
KOXR 012051Z 28014KT 10SM CLR 22/15 A3005 RMK AO2 SLP174 T02170150 58008 $
KOXR 011951Z 28012KT 10SM CLR 21/15 A3006 RMK AO2 SLP178 T02110150 $